sensor_id;sensor_type;location;lat;lon;timestamp;pressure;altitude;pressure_sealevel;temperature;humidity
42633;BME280;28261;53.304;-6.284;2024-01-30T00:00:46;101929.53;;;2.80;100.00
42633;BME280;28261;53.304;-6.284;2024-01-30T00:02:49;101933.88;;;2.81;100.00
42633;BME280;28261;53.304;-6.284;2024-01-30T00:04:54;101933.84;;;2.83;100.00
42633;BME280;28261;53.304;-6.284;2024-01-30T00:06:58;101937.38;;;2.82;100.00
42633;BME280;28261;53.304;-6.284;2024-01-30T00:09:03;101942.59;;;2.82;100.00
42633;BME280;28261;53.304;-6.284;2024-01-30T00:11:08;101938.25;;;2.81;100.00
42633;BME280;28261;53.304;-6.284;2024-01-30T00:13:12;101937.41;;;2.80;100.00
42633;BME280;28261;53.304;-6.284;2024-01-30T00:15:19;101937.41;;;2.80;100.00
42633;BME280;28261;53.304;-6.284;2024-01-30T00:17:25;101946.16;;;2.78;100.00
42633;BME280;28261;53.304;-6.284;2024-01-30T00:19:29;101943.56;;;2.76;100.00
42633;BME280;28261;53.304;-6.284;2024-01-30T00:21:33;101950.50;;;2.77;100.00
42633;BME280;28261;53.304;-6.284;2024-01-30T00:23:38;101960.13;;;2.77;100.00
42633;BME280;28261;53.304;-6.284;2024-01-30T00:25:42;101953.19;;;2.74;100.00
42633;BME280;28261;53.304;-6.284;2024-01-30T00:27:46;101951.47;;;2.71;100.00
42633;BME280;28261;53.304;-6.284;2024-01-30T00:29:50;101957.63;;;2.67;100.00
42633;BME280;28261;53.304;-6.284;2024-01-30T00:31:55;101962.91;;;2.66;100.00
42633;BME280;28261;53.304;-6.284;2024-01-30T00:34:00;101961.16;;;2.65;100.00
42633;BME280;28261;53.304;-6.284;2024-01-30T00:36:05;101968.16;;;2.64;100.00
42633;BME280;28261;53.304;-6.284;2024-01-30T00:38:10;101962.94;;;2.64;100.00
42633;BME280;28261;53.304;-6.284;2024-01-30T00:40:14;101962.97;;;2.63;100.00
42633;BME280;28261;53.304;-6.284;2024-01-30T00:42:20;101956.88;;;2.59;100.00
42633;BME280;28261;53.304;-6.284;2024-01-30T00:44:24;101963.00;;;2.58;100.00
42633;BME280;28261;53.304;-6.284;2024-01-30T00:46:27;101971.75;;;2.56;100.00
42633;BME280;28261;53.304;-6.284;2024-01-30T00:48:32;101965.66;;;2.55;100.00
42633;BME280;28261;53.304;-6.284;2024-01-30T00:50:36;101968.28;;;2.55;100.00
42633;BME280;28261;53.304;-6.284;2024-01-30T00:52:40;101969.19;;;2.52;100.00
42633;BME280;28261;53.304;-6.284;2024-01-30T00:54:47;101973.63;;;2.49;100.00
42633;BME280;28261;53.304;-6.284;2024-01-30T00:56:52;101971.00;;;2.49;100.00
42633;BME280;28261;53.304;-6.284;2024-01-30T00:58:56;101969.25;;;2.48;100.00
42633;BME280;28261;53.304;-6.284;2024-01-30T01:01:00;101969.31;;;2.45;100.00
42633;BME280;28261;53.304;-6.284;2024-01-30T01:03:05;101971.91;;;2.43;100.00
42633;BME280;28261;53.304;-6.284;2024-01-30T01:05:09;101972.84;;;2.41;100.00
42633;BME280;28261;53.304;-6.284;2024-01-30T01:07:15;101972.84;;;2.39;100.00
42633;BME280;28261;53.304;-6.284;2024-01-30T01:09:18;101978.09;;;2.37;100.00
42633;BME280;28261;53.304;-6.284;2024-01-30T01:11:22;101983.34;;;2.36;100.00
42633;BME280;28261;53.304;-6.284;2024-01-30T01:13:26;101981.63;;;2.35;100.00
42633;BME280;28261;53.304;-6.284;2024-01-30T01:15:31;101985.16;;;2.32;100.00
42633;BME280;28261;53.304;-6.284;2024-01-30T01:17:34;101981.69;;;2.30;100.00
42633;BME280;28261;53.304;-6.284;2024-01-30T01:19:39;101989.56;;;2.29;100.00
42633;BME280;28261;53.304;-6.284;2024-01-30T01:21:43;101988.69;;;2.27;100.00
42633;BME280;28261;53.304;-6.284;2024-01-30T01:23:49;101992.22;;;2.24;100.00
42633;BME280;28261;53.304;-6.284;2024-01-30T01:25:53;101997.47;;;2.23;100.00
42633;BME280;28261;53.304;-6.284;2024-01-30T01:28:02;102000.97;;;2.20;100.00
42633;BME280;28261;53.304;-6.284;2024-01-30T01:30:08;102001.91;;;2.17;100.00
42633;BME280;28261;53.304;-6.284;2024-01-30T01:32:14;102011.50;;;2.17;100.00
42633;BME280;28261;53.304;-6.284;2024-01-30T01:34:19;102013.28;;;2.15;100.00
42633;BME280;28261;53.304;-6.284;2024-01-30T01:36:23;102008.91;;;2.14;100.00
42633;BME280;28261;53.304;-6.284;2024-01-30T01:38:27;102001.06;;;2.14;100.00
42633;BME280;28261;53.304;-6.284;2024-01-30T01:40:33;101999.34;;;2.11;100.00
42633;BME280;28261;53.304;-6.284;2024-01-30T01:42:37;102004.59;;;2.11;100.00
42633;BME280;28261;53.304;-6.284;2024-01-30T01:44:41;102013.31;;;2.09;100.00
42633;BME280;28261;53.304;-6.284;2024-01-30T01:46:46;102013.31;;;2.09;100.00
42633;BME280;28261;53.304;-6.284;2024-01-30T01:48:50;102011.59;;;2.08;100.00
42633;BME280;28261;53.304;-6.284;2024-01-30T01:50:54;102020.34;;;2.07;100.00
42633;BME280;28261;53.304;-6.284;2024-01-30T01:52:58;102018.63;;;2.04;100.00
42633;BME280;28261;53.304;-6.284;2024-01-30T01:55:01;102019.47;;;2.05;100.00
42633;BME280;28261;53.304;-6.284;2024-01-30T01:57:07;102022.13;;;2.03;100.00
42633;BME280;28261;53.304;-6.284;2024-01-30T01:59:11;102016.03;;;2.02;100.00
42633;BME280;28261;53.304;-6.284;2024-01-30T02:01:16;102026.50;;;2.02;100.00
42633;BME280;28261;53.304;-6.284;2024-01-30T02:03:22;102022.13;;;2.01;100.00
42633;BME280;28261;53.304;-6.284;2024-01-30T02:05:27;102026.50;;;2.01;100.00
42633;BME280;28261;53.304;-6.284;2024-01-30T02:07:29;102024.78;;;1.98;100.00
42633;BME280;28261;53.304;-6.284;2024-01-30T02:09:34;102036.09;;;1.99;100.00
42633;BME280;28261;53.304;-6.284;2024-01-30T02:11:38;102035.25;;;1.98;100.00
42633;BME280;28261;53.304;-6.284;2024-01-30T02:13:45;102040.47;;;1.98;100.00
42633;BME280;28261;53.304;-6.284;2024-01-30T02:15:49;102038.75;;;1.97;100.00
42633;BME280;28261;53.304;-6.284;2024-01-30T02:17:54;102041.34;;;1.97;100.00
42633;BME280;28261;53.304;-6.284;2024-01-30T02:19:59;102043.09;;;1.95;100.00
42633;BME280;28261;53.304;-6.284;2024-01-30T02:22:06;102042.25;;;1.95;100.00
42633;BME280;28261;53.304;-6.284;2024-01-30T02:24:10;102051.84;;;1.94;100.00
42633;BME280;28261;53.304;-6.284;2024-01-30T02:26:16;102055.34;;;1.93;100.00
42633;BME280;28261;53.304;-6.284;2024-01-30T02:28:20;102051.00;;;1.92;100.00
42633;BME280;28261;53.304;-6.284;2024-01-30T02:30:24;102048.38;;;1.92;100.00
42633;BME280;28261;53.304;-6.284;2024-01-30T02:32:29;102051.88;;;1.91;100.00
42633;BME280;28261;53.304;-6.284;2024-01-30T02:34:33;102049.25;;;1.90;100.00
42633;BME280;28261;53.304;-6.284;2024-01-30T02:36:36;102055.38;;;1.87;100.00
42633;BME280;28261;53.304;-6.284;2024-01-30T02:38:41;102052.78;;;1.87;100.00
42633;BME280;28261;53.304;-6.284;2024-01-30T02:40:46;102058.91;;;1.86;100.00
42633;BME280;28261;53.304;-6.284;2024-01-30T02:42:50;102055.44;;;1.84;100.00
42633;BME280;28261;53.304;-6.284;2024-01-30T02:44:54;102060.66;;;1.84;100.00
42633;BME280;28261;53.304;-6.284;2024-01-30T02:46:58;102068.50;;;1.84;100.00
42633;BME280;28261;53.304;-6.284;2024-01-30T02:49:02;102067.66;;;1.82;100.00
42633;BME280;28261;53.304;-6.284;2024-01-30T02:51:06;102066.78;;;1.80;100.00
42633;BME280;28261;53.304;-6.284;2024-01-30T02:53:10;102067.66;;;1.79;100.00
42633;BME280;28261;53.304;-6.284;2024-01-30T02:55:16;102072.91;;;1.79;100.00
42633;BME280;28261;53.304;-6.284;2024-01-30T02:57:21;102072.06;;;1.77;100.00
42633;BME280;28261;53.304;-6.284;2024-01-30T02:59:25;102063.31;;;1.76;100.00
42633;BME280;28261;53.304;-6.284;2024-01-30T03:01:29;102066.84;;;1.75;100.00
42633;BME280;28261;53.304;-6.284;2024-01-30T03:03:32;102071.19;;;1.75;100.00
42633;BME280;28261;53.304;-6.284;2024-01-30T03:05:38;102072.94;;;1.76;100.00
42633;BME280;28261;53.304;-6.284;2024-01-30T03:07:42;102072.94;;;1.76;100.00
42633;BME280;28261;53.304;-6.284;2024-01-30T03:09:47;102074.69;;;1.75;100.00
42633;BME280;28261;53.304;-6.284;2024-01-30T03:11:52;102075.56;;;1.74;100.00
42633;BME280;28261;53.304;-6.284;2024-01-30T03:13:56;102079.94;;;1.74;100.00
42633;BME280;28261;53.304;-6.284;2024-01-30T03:16:00;102084.28;;;1.73;100.00
42633;BME280;28261;53.304;-6.284;2024-01-30T03:18:05;102088.66;;;1.73;100.00
42633;BME280;28261;53.304;-6.284;2024-01-30T03:20:10;102088.66;;;1.73;100.00
42633;BME280;28261;53.304;-6.284;2024-01-30T03:22:14;102090.38;;;1.74;100.00
42633;BME280;28261;53.304;-6.284;2024-01-30T03:24:18;102091.25;;;1.74;100.00
42633;BME280;28261;53.304;-6.284;2024-01-30T03:26:23;102098.22;;;1.74;100.00
42633;BME280;28261;53.304;-6.284;2024-01-30T03:28:28;102101.72;;;1.73;100.00
42633;BME280;28261;53.304;-6.284;2024-01-30T03:30:32;102096.50;;;1.73;100.00
42633;BME280;28261;53.304;-6.284;2024-01-30T03:32:36;102100.84;;;1.74;100.00
42633;BME280;28261;53.304;-6.284;2024-01-30T03:34:40;102106.94;;;1.74;100.00
42633;BME280;28261;53.304;-6.284;2024-01-30T03:36:44;102103.44;;;1.75;100.00
42633;BME280;28261;53.304;-6.284;2024-01-30T03:38:48;102116.50;;;1.77;100.00
42633;BME280;28261;53.304;-6.284;2024-01-30T03:40:52;102108.66;;;1.77;100.00
42633;BME280;28261;53.304;-6.284;2024-01-30T03:42:56;102113.88;;;1.78;100.00
42633;BME280;28261;53.304;-6.284;2024-01-30T03:45:02;102111.25;;;1.78;100.00
42633;BME280;28261;53.304;-6.284;2024-01-30T03:47:06;102113.88;;;1.78;100.00
42633;BME280;28261;53.304;-6.284;2024-01-30T03:49:09;102114.72;;;1.79;100.00
42633;BME280;28261;53.304;-6.284;2024-01-30T03:51:14;102117.34;;;1.79;100.00
42633;BME280;28261;53.304;-6.284;2024-01-30T03:53:18;102119.97;;;1.79;100.00
42633;BME280;28261;53.304;-6.284;2024-01-30T03:55:22;102125.19;;;1.79;100.00
42633;BME280;28261;53.304;-6.284;2024-01-30T03:57:26;102121.72;;;1.78;100.00
42633;BME280;28261;53.304;-6.284;2024-01-30T03:59:30;102128.72;;;1.78;100.00
42633;BME280;28261;53.304;-6.284;2024-01-30T04:01:36;102126.09;;;1.78;100.00
42633;BME280;28261;53.304;-6.284;2024-01-30T04:03:40;102120.84;;;1.76;100.00
42633;BME280;28261;53.304;-6.284;2024-01-30T04:05:46;102133.06;;;1.76;100.00
42633;BME280;28261;53.304;-6.284;2024-01-30T04:07:50;102132.22;;;1.75;100.00
42633;BME280;28261;53.304;-6.284;2024-01-30T04:09:54;102151.34;;;1.77;100.00
42633;BME280;28261;53.304;-6.284;2024-01-30T04:11:58;102140.91;;;1.76;100.00
42633;BME280;28261;53.304;-6.284;2024-01-30T04:14:02;102156.59;;;1.76;100.00
42633;BME280;28261;53.304;-6.284;2024-01-30T04:16:06;102159.22;;;1.74;100.00
42633;BME280;28261;53.304;-6.284;2024-01-30T04:18:11;102151.41;;;1.73;100.00
42633;BME280;28261;53.304;-6.284;2024-01-30T04:20:15;102152.25;;;1.72;100.00
42633;BME280;28261;53.304;-6.284;2024-01-30T04:22:18;102154.88;;;1.72;100.00
42633;BME280;28261;53.304;-6.284;2024-01-30T04:24:22;102160.97;;;1.72;100.00
42633;BME280;28261;53.304;-6.284;2024-01-30T04:26:26;102165.31;;;1.73;100.00
42633;BME280;28261;53.304;-6.284;2024-01-30T04:28:30;102173.16;;;1.73;100.00
42633;BME280;28261;53.304;-6.284;2024-01-30T04:30:35;102174.03;;;1.72;100.00
42633;BME280;28261;53.304;-6.284;2024-01-30T04:32:39;102168.81;;;1.71;100.00
42633;BME280;28261;53.304;-6.284;2024-01-30T04:34:45;102174.94;;;1.68;100.00
42633;BME280;28261;53.304;-6.284;2024-01-30T04:36:48;102167.97;;;1.68;100.00
42633;BME280;28261;53.304;-6.284;2024-01-30T04:38:53;102175.84;;;1.67;100.00
42633;BME280;28261;53.304;-6.284;2024-01-30T04:40:55;102191.53;;;1.65;100.00
42633;BME280;28261;53.304;-6.284;2024-01-30T04:43:00;102186.28;;;1.64;100.00
42633;BME280;28261;53.304;-6.284;2024-01-30T04:45:05;102188.06;;;1.62;100.00
42633;BME280;28261;53.304;-6.284;2024-01-30T04:47:09;102190.69;;;1.60;100.00
42633;BME280;28261;53.304;-6.284;2024-01-30T04:49:14;102195.03;;;1.58;100.00
42633;BME280;28261;53.304;-6.284;2024-01-30T04:51:20;102185.47;;;1.56;100.00
42633;BME280;28261;53.304;-6.284;2024-01-30T04:53:24;102195.91;;;1.56;100.00
42633;BME280;28261;53.304;-6.284;2024-01-30T04:55:27;102202.03;;;1.56;100.00
42633;BME280;28261;53.304;-6.284;2024-01-30T04:57:31;102193.31;;;1.56;100.00
42633;BME280;28261;53.304;-6.284;2024-01-30T04:59:36;102192.44;;;1.55;100.00
42633;BME280;28261;53.304;-6.284;2024-01-30T05:01:40;102199.44;;;1.55;100.00
42633;BME280;28261;53.304;-6.284;2024-01-30T05:03:44;102202.91;;;1.54;100.00
42633;BME280;28261;53.304;-6.284;2024-01-30T05:05:48;102206.41;;;1.54;100.00
42633;BME280;28261;53.304;-6.284;2024-01-30T05:07:54;102203.78;;;1.54;100.00
42633;BME280;28261;53.304;-6.284;2024-01-30T05:09:58;102215.13;;;1.55;100.00
42633;BME280;28261;53.304;-6.284;2024-01-30T05:12:07;102203.78;;;1.54;100.00
42633;BME280;28261;53.304;-6.284;2024-01-30T05:14:11;102212.50;;;1.55;100.00
42633;BME280;28261;53.304;-6.284;2024-01-30T05:16:17;102218.59;;;1.55;100.00
42633;BME280;28261;53.304;-6.284;2024-01-30T05:18:21;102215.13;;;1.55;100.00
42633;BME280;28261;53.304;-6.284;2024-01-30T05:20:26;102217.72;;;1.56;100.00
42633;BME280;28261;53.304;-6.284;2024-01-30T05:22:31;102222.03;;;1.57;100.00
42633;BME280;28261;53.304;-6.284;2024-01-30T05:24:37;102232.53;;;1.59;100.00
42633;BME280;28261;53.304;-6.284;2024-01-30T05:26:41;102235.13;;;1.60;100.00
42633;BME280;28261;53.304;-6.284;2024-01-30T05:28:45;102243.81;;;1.62;100.00
42633;BME280;28261;53.304;-6.284;2024-01-30T05:30:49;102239.47;;;1.64;100.00
42633;BME280;28261;53.304;-6.284;2024-01-30T05:32:53;102242.91;;;1.66;100.00
42633;BME280;28261;53.304;-6.284;2024-01-30T05:34:57;102235.06;;;1.66;100.00
42633;BME280;28261;53.304;-6.284;2024-01-30T05:37:02;102242.03;;;1.69;100.00
42633;BME280;28261;53.304;-6.284;2024-01-30T05:39:06;102254.22;;;1.72;100.00
42633;BME280;28261;53.304;-6.284;2024-01-30T05:41:12;102248.13;;;1.73;100.00
42633;BME280;28261;53.304;-6.284;2024-01-30T05:43:17;102252.50;;;1.74;100.00
42633;BME280;28261;53.304;-6.284;2024-01-30T05:45:21;102253.34;;;1.74;100.00
42633;BME280;28261;53.304;-6.284;2024-01-30T05:47:26;102248.09;;;1.76;100.00
42633;BME280;28261;53.304;-6.284;2024-01-30T05:49:30;102249.84;;;1.78;100.00
42633;BME280;28261;53.304;-6.284;2024-01-30T05:51:34;102255.91;;;1.79;100.00
42633;BME280;28261;53.304;-6.284;2024-01-30T05:53:38;102254.19;;;1.81;100.00
42633;BME280;28261;53.304;-6.284;2024-01-30T05:55:42;102256.78;;;1.81;100.00
42633;BME280;28261;53.304;-6.284;2024-01-30T05:57:48;102261.16;;;1.82;100.00
42633;BME280;28261;53.304;-6.284;2024-01-30T05:59:53;102262.88;;;1.83;100.00
42633;BME280;28261;53.304;-6.284;2024-01-30T06:01:57;102269.84;;;1.84;100.00
42633;BME280;28261;53.304;-6.284;2024-01-30T06:04:02;102272.47;;;1.82;100.00
42633;BME280;28261;53.304;-6.284;2024-01-30T06:06:06;102272.47;;;1.84;100.00
42633;BME280;28261;53.304;-6.284;2024-01-30T06:08:09;102269.84;;;1.84;100.00
42633;BME280;28261;53.304;-6.284;2024-01-30T06:10:14;102275.06;;;1.85;100.00
42633;BME280;28261;53.304;-6.284;2024-01-30T06:12:18;102279.44;;;1.85;100.00
42633;BME280;28261;53.304;-6.284;2024-01-30T06:14:24;102279.44;;;1.85;100.00
42633;BME280;28261;53.304;-6.284;2024-01-30T06:16:29;102277.69;;;1.85;100.00
42633;BME280;28261;53.304;-6.284;2024-01-30T06:18:33;102282.91;;;1.85;100.00
42633;BME280;28261;53.304;-6.284;2024-01-30T06:20:37;102287.28;;;1.85;100.00
42633;BME280;28261;53.304;-6.284;2024-01-30T06:22:41;102290.75;;;1.87;100.00
42633;BME280;28261;53.304;-6.284;2024-01-30T06:24:45;102297.72;;;1.86;100.00
42633;BME280;28261;53.304;-6.284;2024-01-30T06:26:50;102299.47;;;1.86;100.00
42633;BME280;28261;53.304;-6.284;2024-01-30T06:28:54;102306.44;;;1.87;100.00
42633;BME280;28261;53.304;-6.284;2024-01-30T06:31:00;102309.03;;;1.87;100.00
42633;BME280;28261;53.304;-6.284;2024-01-30T06:33:05;102304.72;;;1.86;100.00
42633;BME280;28261;53.304;-6.284;2024-01-30T06:35:09;102315.19;;;1.86;100.00
42633;BME280;28261;53.304;-6.284;2024-01-30T06:37:14;102318.66;;;1.85;100.00
42633;BME280;28261;53.304;-6.284;2024-01-30T06:39:18;102314.28;;;1.85;100.00
42633;BME280;28261;53.304;-6.284;2024-01-30T06:41:22;102318.66;;;1.85;100.00
42633;BME280;28261;53.304;-6.284;2024-01-30T06:43:26;102316.91;;;1.84;100.00
42633;BME280;28261;53.304;-6.284;2024-01-30T06:45:31;102318.66;;;1.85;100.00
42633;BME280;28261;53.304;-6.284;2024-01-30T06:47:36;102326.50;;;1.85;100.00
42633;BME280;28261;53.304;-6.284;2024-01-30T06:49:40;102329.13;;;1.85;100.00
42633;BME280;28261;53.304;-6.284;2024-01-30T06:51:46;102329.13;;;1.85;100.00
42633;BME280;28261;53.304;-6.284;2024-01-30T06:53:50;102334.34;;;1.86;100.00
42633;BME280;28261;53.304;-6.284;2024-01-30T06:55:53;102331.72;;;1.86;100.00
42633;BME280;28261;53.304;-6.284;2024-01-30T06:57:57;102333.47;;;1.88;100.00
42633;BME280;28261;53.304;-6.284;2024-01-30T07:00:01;102335.19;;;1.89;100.00
42633;BME280;28261;53.304;-6.284;2024-01-30T07:02:05;102336.06;;;1.89;100.00
42633;BME280;28261;53.304;-6.284;2024-01-30T07:04:11;102336.06;;;1.89;100.00
42633;BME280;28261;53.304;-6.284;2024-01-30T07:06:15;102351.75;;;1.89;100.00
42633;BME280;28261;53.304;-6.284;2024-01-30T07:08:18;102347.38;;;1.90;100.00
42633;BME280;28261;53.304;-6.284;2024-01-30T07:10:22;102356.13;;;1.90;100.00
42633;BME280;28261;53.304;-6.284;2024-01-30T07:12:26;102353.50;;;1.90;100.00
42633;BME280;28261;53.304;-6.284;2024-01-30T07:14:30;102356.13;;;1.90;100.00
42633;BME280;28261;53.304;-6.284;2024-01-30T07:16:33;102359.59;;;1.91;100.00
42633;BME280;28261;53.304;-6.284;2024-01-30T07:18:39;102366.56;;;1.92;100.00
42633;BME280;28261;53.304;-6.284;2024-01-30T07:20:44;102361.34;;;1.93;100.00
42633;BME280;28261;53.304;-6.284;2024-01-30T07:22:49;102364.78;;;1.95;100.00
42633;BME280;28261;53.304;-6.284;2024-01-30T07:24:53;102370.03;;;1.98;100.00
42633;BME280;28261;53.304;-6.284;2024-01-30T07:26:56;102363.91;;;1.98;100.00
42633;BME280;28261;53.304;-6.284;2024-01-30T07:29:00;102370.88;;;2.00;100.00
42633;BME280;28261;53.304;-6.284;2024-01-30T07:31:04;102371.78;;;2.01;100.00
42633;BME280;28261;53.304;-6.284;2024-01-30T07:33:08;102369.13;;;1.99;100.00
42633;BME280;28261;53.304;-6.284;2024-01-30T07:35:13;102370.88;;;2.00;100.00
42633;BME280;28261;53.304;-6.284;2024-01-30T07:37:18;102373.50;;;2.00;100.00
42633;BME280;28261;53.304;-6.284;2024-01-30T07:39:22;102375.25;;;2.00;100.00
42633;BME280;28261;53.304;-6.284;2024-01-30T07:41:26;102377.88;;;2.00;100.00
42633;BME280;28261;53.304;-6.284;2024-01-30T07:43:29;102390.06;;;1.99;100.00
42633;BME280;28261;53.304;-6.284;2024-01-30T07:45:33;102397.03;;;2.00;100.00
42633;BME280;28261;53.304;-6.284;2024-01-30T07:47:37;102400.53;;;2.02;100.00
42633;BME280;28261;53.304;-6.284;2024-01-30T07:49:42;102413.63;;;2.02;100.00
42633;BME280;28261;53.304;-6.284;2024-01-30T07:51:46;102408.34;;;2.06;100.00
42633;BME280;28261;53.304;-6.284;2024-01-30T07:53:55;102410.09;;;2.10;100.00
42633;BME280;28261;53.304;-6.284;2024-01-30T07:56:03;102409.19;;;2.14;100.00
42633;BME280;28261;53.304;-6.284;2024-01-30T07:58:07;102413.50;;;2.21;100.00
42633;BME280;28261;53.304;-6.284;2024-01-30T08:00:13;102416.13;;;2.26;100.00
42633;BME280;28261;53.304;-6.284;2024-01-30T08:02:18;102428.28;;;2.33;100.00
42633;BME280;28261;53.304;-6.284;2024-01-30T08:04:24;102421.28;;;2.35;100.00
42633;BME280;28261;53.304;-6.284;2024-01-30T08:06:29;102427.38;;;2.40;100.00
42633;BME280;28261;53.304;-6.284;2024-01-30T08:08:32;102427.34;;;2.42;100.00
42633;BME280;28261;53.304;-6.284;2024-01-30T08:10:38;102429.97;;;2.42;100.00
42633;BME280;28261;53.304;-6.284;2024-01-30T08:12:42;102423.88;;;2.41;100.00
42633;BME280;28261;53.304;-6.284;2024-01-30T08:14:46;102434.34;;;2.41;100.00
42633;BME280;28261;53.304;-6.284;2024-01-30T08:16:50;102431.75;;;2.40;100.00
42633;BME280;28261;53.304;-6.284;2024-01-30T08:18:54;102437.84;;;2.39;100.00
42633;BME280;28261;53.304;-6.284;2024-01-30T08:21:00;102444.84;;;2.36;100.00
42633;BME280;28261;53.304;-6.284;2024-01-30T08:23:04;102440.50;;;2.35;100.00
42633;BME280;28261;53.304;-6.284;2024-01-30T08:25:08;102445.72;;;2.35;100.00
42633;BME280;28261;53.304;-6.284;2024-01-30T08:27:14;102444.84;;;2.33;100.00
42633;BME280;28261;53.304;-6.284;2024-01-30T08:29:18;102452.72;;;2.32;100.00
42633;BME280;28261;53.304;-6.284;2024-01-30T08:31:23;102454.47;;;2.31;100.00
42633;BME280;28261;53.304;-6.284;2024-01-30T08:33:27;102454.47;;;2.28;100.00
42633;BME280;28261;53.304;-6.284;2024-01-30T08:35:31;102464.09;;;2.26;100.00
42633;BME280;28261;53.304;-6.284;2024-01-30T08:37:36;102464.94;;;2.27;100.00
42633;BME280;28261;53.304;-6.284;2024-01-30T08:39:40;102465.84;;;2.26;100.00
42633;BME280;28261;53.304;-6.284;2024-01-30T08:41:44;102467.56;;;2.25;100.00
42633;BME280;28261;53.304;-6.284;2024-01-30T08:43:48;102471.94;;;2.26;100.00
42633;BME280;28261;53.304;-6.284;2024-01-30T08:45:52;102471.06;;;2.27;100.00
42633;BME280;28261;53.304;-6.284;2024-01-30T08:47:56;102476.28;;;2.29;100.00
42633;BME280;28261;53.304;-6.284;2024-01-30T08:50:00;102466.69;;;2.32;100.00
42633;BME280;28261;53.304;-6.284;2024-01-30T08:52:04;102467.53;;;2.34;100.00
42633;BME280;28261;53.304;-6.284;2024-01-30T08:54:09;102463.19;;;2.36;100.00
42633;BME280;28261;53.304;-6.284;2024-01-30T08:56:13;102468.38;;;2.40;100.00
42633;BME280;28261;53.304;-6.284;2024-01-30T08:58:18;102471.84;;;2.42;100.00
42633;BME280;28261;53.304;-6.284;2024-01-30T09:00:24;102471.84;;;2.43;100.00
42633;BME280;28261;53.304;-6.284;2024-01-30T09:02:28;102473.56;;;2.46;100.00
42633;BME280;28261;53.304;-6.284;2024-01-30T09:04:32;102476.19;;;2.47;100.00
42633;BME280;28261;53.304;-6.284;2024-01-30T09:06:35;102477.91;;;2.50;100.00
42633;BME280;28261;53.304;-6.284;2024-01-30T09:08:42;102478.78;;;2.53;100.00
42633;BME280;28261;53.304;-6.284;2024-01-30T09:10:45;102490.13;;;2.57;100.00
42633;BME280;28261;53.304;-6.284;2024-01-30T09:12:49;102489.22;;;2.61;100.00
42633;BME280;28261;53.304;-6.284;2024-01-30T09:14:53;102490.94;;;2.65;100.00
42633;BME280;28261;53.304;-6.284;2024-01-30T09:16:58;102497.91;;;2.69;100.00
42633;BME280;28261;53.304;-6.284;2024-01-30T09:19:02;102499.63;;;2.75;100.00
42633;BME280;28261;53.304;-6.284;2024-01-30T09:21:06;102504.81;;;2.80;100.00
42633;BME280;28261;53.304;-6.284;2024-01-30T09:23:09;102506.53;;;2.84;100.00
42633;BME280;28261;53.304;-6.284;2024-01-30T09:25:13;102517.88;;;2.87;100.00
42633;BME280;28261;53.304;-6.284;2024-01-30T09:27:17;102516.97;;;2.93;100.00
42633;BME280;28261;53.304;-6.284;2024-01-30T09:29:21;102519.56;;;2.98;100.00
42633;BME280;28261;53.304;-6.284;2024-01-30T09:31:25;102520.38;;;3.04;100.00
42633;BME280;28261;53.304;-6.284;2024-01-30T09:33:30;102521.25;;;3.08;100.00
42633;BME280;28261;53.304;-6.284;2024-01-30T09:35:34;102522.06;;;3.15;100.00
42633;BME280;28261;53.304;-6.284;2024-01-30T09:37:38;102528.16;;;3.20;100.00
42633;BME280;28261;53.304;-6.284;2024-01-30T09:39:42;102531.59;;;3.25;100.00
42633;BME280;28261;53.304;-6.284;2024-01-30T09:41:49;102532.44;;;3.30;100.00
42633;BME280;28261;53.304;-6.284;2024-01-30T09:43:55;102532.41;;;3.33;100.00
42633;BME280;28261;53.304;-6.284;2024-01-30T09:46:02;102535.88;;;3.38;100.00
42633;BME280;28261;53.304;-6.284;2024-01-30T09:48:07;102533.22;;;3.43;100.00
42633;BME280;28261;53.304;-6.284;2024-01-30T09:50:13;102541.91;;;3.48;100.00
42633;BME280;28261;53.304;-6.284;2024-01-30T09:52:18;102544.50;;;3.53;100.00
42633;BME280;28261;53.304;-6.284;2024-01-30T09:54:21;102542.72;;;3.55;100.00
42633;BME280;28261;53.304;-6.284;2024-01-30T09:56:25;102544.47;;;3.58;100.00
42633;BME280;28261;53.304;-6.284;2024-01-30T09:58:29;102537.44;;;3.58;100.00
42633;BME280;28261;53.304;-6.284;2024-01-30T10:00:33;102534.81;;;3.61;100.00
42633;BME280;28261;53.304;-6.284;2024-01-30T10:02:37;102539.13;;;3.68;100.00
42633;BME280;28261;53.304;-6.284;2024-01-30T10:04:42;102540.78;;;3.76;100.00
42633;BME280;28261;53.304;-6.284;2024-01-30T10:06:47;102543.34;;;3.85;100.00
42633;BME280;28261;53.304;-6.284;2024-01-30T10:08:51;102552.88;;;3.95;100.00
42633;BME280;28261;53.304;-6.284;2024-01-30T10:10:54;102555.41;;;4.06;100.00
42633;BME280;28261;53.304;-6.284;2024-01-30T10:12:58;102554.38;;;4.18;100.00
42633;BME280;28261;53.304;-6.284;2024-01-30T10:15:07;102550.72;;;4.31;100.00
42633;BME280;28261;53.304;-6.284;2024-01-30T10:17:12;102547.94;;;4.45;100.00
42633;BME280;28261;53.304;-6.284;2024-01-30T10:19:29;102550.38;;;4.59;100.00
42633;BME280;28261;53.304;-6.284;2024-01-30T10:21:33;102553.72;;;4.73;100.00
42633;BME280;28261;53.304;-6.284;2024-01-30T10:23:39;102548.31;;;4.84;100.00
42633;BME280;28261;53.304;-6.284;2024-01-30T10:25:43;102552.53;;;4.95;100.00
42633;BME280;28261;53.304;-6.284;2024-01-30T10:27:47;102550.69;;;5.03;100.00
42633;BME280;28261;53.304;-6.284;2024-01-30T10:29:54;102555.78;;;5.14;100.00
42633;BME280;28261;53.304;-6.284;2024-01-30T10:31:59;102560.88;;;5.24;100.00
42633;BME280;28261;53.304;-6.284;2024-01-30T10:34:03;102559.75;;;5.41;100.00
42633;BME280;28261;53.304;-6.284;2024-01-30T10:36:22;102556.94;;;5.52;100.00
42633;BME280;28261;53.304;-6.284;2024-01-30T10:38:31;102550.78;;;5.53;100.00
42633;BME280;28261;53.304;-6.284;2024-01-30T10:40:37;102549.94;;;5.51;100.00
42633;BME280;28261;53.304;-6.284;2024-01-30T10:42:44;102556.06;;;5.53;100.00